createdAt,value
2022-10-13T00:00:56.158Z,8.88
2022-10-13T00:04:03.303Z,8.88
2022-10-13T00:07:09.895Z,8.20
2022-10-13T00:10:15.960Z,8.60
2022-10-13T00:13:22.762Z,8.65
2022-10-13T00:16:29.606Z,8.48
2022-10-13T00:19:38.595Z,9.03
2022-10-13T00:22:45.634Z,7.53
2022-10-13T00:26:02.879Z,8.48
2022-10-13T00:29:09.674Z,8.85
2022-10-13T00:32:15.529Z,7.58
2022-10-13T00:35:22.701Z,8.43
2022-10-13T00:38:27.572Z,8.40
2022-10-13T00:41:34.324Z,8.25
2022-10-13T00:45:11.353Z,7.15
2022-10-13T00:48:19.322Z,7.58
2022-10-13T00:51:25.836Z,8.68
2022-10-13T00:54:34.983Z,7.78
2022-10-13T00:57:41.213Z,8.38
2022-10-13T01:00:46.839Z,7.65
2022-10-13T01:03:54.566Z,7.80
2022-10-13T01:07:00.598Z,8.93
2022-10-13T01:10:08.559Z,7.87
2022-10-13T01:13:45.614Z,8.80
2022-10-13T01:17:17.531Z,7.40
2022-10-13T01:21:06.683Z,7.70
2022-10-13T01:24:35.852Z,6.67
2022-10-13T01:27:54.899Z,7.08
2022-10-13T01:31:24.536Z,7.67
2022-10-13T01:35:00.122Z,6.85
2022-10-13T01:38:14.875Z,7.25
2022-10-13T01:41:39.027Z,8.25
2022-10-13T01:44:51.015Z,7.60
2022-10-13T01:47:56.106Z,6.83
2022-10-13T01:51:03.014Z,6.75
2022-10-13T01:54:10.752Z,7.62
2022-10-13T01:57:17.207Z,7.95
2022-10-13T02:00:27.416Z,7.33
2022-10-13T02:03:51.970Z,7.37
2022-10-13T02:07:25.294Z,6.62
2022-10-13T02:10:51.355Z,6.70
2022-10-13T02:14:25.720Z,6.37
2022-10-13T02:17:32.767Z,6.35
2022-10-13T02:20:39.652Z,6.95
2022-10-13T02:23:46.202Z,6.65
2022-10-13T02:26:51.945Z,6.78
2022-10-13T02:30:06.806Z,6.55
2022-10-13T02:33:14.207Z,6.87
2022-10-13T02:36:20.809Z,6.75
2022-10-13T02:39:29.010Z,6.55
2022-10-13T02:42:35.354Z,6.67
2022-10-13T02:45:40.687Z,6.90
2022-10-13T02:48:47.015Z,6.55
2022-10-13T02:51:55.828Z,6.72
2022-10-13T02:55:01.604Z,8.58
2022-10-13T02:58:07.759Z,7.37
2022-10-13T03:01:25.107Z,7.85
2022-10-13T03:04:31.995Z,8.30
2022-10-13T03:07:38.075Z,7.60
2022-10-13T03:10:44.045Z,9.30
2022-10-13T03:13:51.246Z,10.08
2022-10-13T03:16:56.399Z,8.60
2022-10-13T03:20:02.272Z,9.50
2022-10-13T03:23:09.345Z,8.95
2022-10-13T03:26:15.204Z,9.45
2022-10-13T03:29:21.767Z,9.25
2022-10-13T03:32:27.696Z,9.63
2022-10-13T03:35:35.089Z,9.48
2022-10-13T03:38:43.847Z,9.18
2022-10-13T03:41:49.992Z,8.18
2022-10-13T03:44:56.703Z,8.58
2022-10-13T03:48:07.058Z,9.10
2022-10-13T03:51:13.406Z,8.33
2022-10-13T03:54:21.495Z,8.53
2022-10-13T03:57:28.463Z,8.08
2022-10-13T04:00:35.722Z,7.20
2022-10-13T04:03:43.450Z,6.55
2022-10-13T04:06:49.459Z,8.35
2022-10-13T04:09:54.745Z,8.88
2022-10-13T04:13:03.061Z,9.18
2022-10-13T04:16:10.449Z,8.38
2022-10-13T04:19:20.341Z,8.93
2022-10-13T04:22:26.223Z,8.25
2022-10-13T04:25:34.358Z,8.95
2022-10-13T04:28:43.462Z,8.75
2022-10-13T04:31:51.953Z,9.43
2022-10-13T04:34:58.669Z,9.35
2022-10-13T04:38:04.817Z,8.80
2022-10-13T04:41:11.126Z,10.20
2022-10-13T04:44:16.613Z,8.75
2022-10-13T04:47:21.857Z,9.08
2022-10-13T04:50:27.233Z,9.03
2022-10-13T04:53:36.148Z,8.63
2022-10-13T04:56:44.805Z,13.43
2022-10-13T04:59:52.455Z,13.98
2022-10-13T05:02:59.762Z,14.85
2022-10-13T05:06:05.969Z,19.95
2022-10-13T05:09:37.654Z,18.42
2022-10-13T05:12:44.583Z,18.32
2022-10-13T05:15:53.580Z,21.12
2022-10-13T05:18:59.497Z,16.55
2022-10-13T05:22:06.049Z,21.42
2022-10-13T05:25:12.724Z,21.55
2022-10-13T05:28:20.127Z,18.73
2022-10-13T05:31:35.569Z,14.50
2022-10-13T05:34:40.722Z,15.35
2022-10-13T05:37:48.886Z,9.48
2022-10-13T05:40:56.926Z,14.35
2022-10-13T05:44:03.634Z,8.18
2022-10-13T05:47:12.416Z,7.28
2022-10-13T05:50:19.523Z,6.60
2022-10-13T05:53:25.111Z,7.53
2022-10-13T05:56:34.201Z,6.72
2022-10-13T05:59:39.463Z,6.37
2022-10-13T06:02:49.371Z,6.67
2022-10-13T06:05:56.123Z,6.95
2022-10-13T06:09:02.784Z,6.20
2022-10-13T06:12:11.133Z,5.97
2022-10-13T06:15:16.887Z,6.72
2022-10-13T06:18:24.539Z,6.05
2022-10-13T06:21:30.280Z,6.08
2022-10-13T06:24:36.782Z,10.53
2022-10-13T06:27:45.947Z,6.17
2022-10-13T06:30:57.842Z,6.35
2022-10-13T06:34:04.762Z,5.47
2022-10-13T06:37:14.351Z,6.25
2022-10-13T06:40:21.590Z,6.60
2022-10-13T06:43:35.713Z,5.60
2022-10-13T06:46:36.781Z,5.62
2022-10-13T06:49:42.987Z,5.72
2022-10-13T06:52:51.455Z,5.53
2022-10-13T06:56:02.506Z,5.62
2022-10-13T06:59:08.413Z,5.30
2022-10-13T07:02:16.558Z,5.37
2022-10-13T07:05:25.499Z,4.78
2022-10-13T07:08:31.494Z,5.67
2022-10-13T07:11:39.175Z,5.30
2022-10-13T07:14:44.110Z,5.03
2022-10-13T07:17:51.233Z,4.75
2022-10-13T07:20:59.129Z,4.33
2022-10-13T07:24:05.458Z,5.33
2022-10-13T07:27:12.382Z,5.80
2022-10-13T07:30:17.706Z,6.35
2022-10-13T07:33:24.614Z,14.05
2022-10-13T07:36:31.339Z,4.30
2022-10-13T07:39:37.703Z,3.47
2022-10-13T07:42:43.793Z,3.22
2022-10-13T07:45:50.585Z,3.05
2022-10-13T07:48:56.358Z,3.52
2022-10-13T07:52:02.454Z,3.58
2022-10-13T07:55:10.102Z,3.65
2022-10-13T07:58:18.508Z,3.92
2022-10-13T08:01:23.596Z,3.67
2022-10-13T08:04:29.347Z,2.98
2022-10-13T08:07:38.870Z,2.92
2022-10-13T08:10:47.073Z,2.62
2022-10-13T08:13:55.656Z,3.47
2022-10-13T08:17:02.050Z,3.08
2022-10-13T08:20:06.972Z,2.98
2022-10-13T08:23:29.216Z,3.62
2022-10-13T08:26:42.101Z,2.45
2022-10-13T08:29:49.640Z,2.87
2022-10-13T08:32:49.475Z,2.47
2022-10-13T08:35:43.877Z,2.50
2022-10-13T08:38:57.324Z,2.30
2022-10-13T08:42:17.159Z,2.40
2022-10-13T08:45:42.716Z,2.25
2022-10-13T08:48:48.552Z,2.40
2022-10-13T08:51:55.706Z,1.67
2022-10-13T08:55:03.594Z,3.02
2022-10-13T08:58:11.770Z,2.35
2022-10-13T09:01:33.707Z,1.90
2022-10-13T09:04:53.581Z,2.20
2022-10-13T09:08:01.557Z,2.30
2022-10-13T09:11:08.116Z,2.05
2022-10-13T09:14:22.041Z,2.40
2022-10-13T09:17:43.304Z,2.40
2022-10-13T09:20:49.299Z,2.05
2022-10-13T09:23:57.735Z,1.95
2022-10-13T09:27:05.297Z,2.17
2022-10-13T09:30:11.611Z,2.12
2022-10-13T09:33:30.329Z,2.33
2022-10-13T09:36:41.364Z,2.12
2022-10-13T09:39:49.257Z,2.65
2022-10-13T09:43:05.998Z,2.60
2022-10-13T09:46:12.728Z,2.90
2022-10-13T09:49:40.681Z,2.55
2022-10-13T09:52:47.764Z,2.40
2022-10-13T09:55:57.015Z,2.80
2022-10-13T09:59:11.114Z,2.67
2022-10-13T10:05:45.154Z,2.77
2022-10-13T10:09:27.465Z,2.72
2022-10-13T10:12:36.178Z,2.30
2022-10-13T10:16:03.408Z,2.83
2022-10-13T10:19:38.286Z,2.25
2022-10-13T10:22:59.744Z,2.12
2022-10-13T10:26:19.387Z,1.95
2022-10-13T10:29:35.503Z,2.05
2022-10-13T10:32:51.513Z,2.67
2022-10-13T10:36:08.865Z,2.05
2022-10-13T10:39:39.715Z,1.50
2022-10-13T10:43:13.217Z,1.85
2022-10-13T10:46:20.012Z,1.40
2022-10-13T10:49:47.094Z,1.60
2022-10-13T10:53:12.742Z,1.60
2022-10-13T10:56:23.271Z,2.00
2022-10-13T10:59:49.985Z,1.83
2022-10-13T11:03:08.296Z,1.60
2022-10-13T11:06:19.640Z,1.50
2022-10-13T11:09:25.079Z,1.60
2022-10-13T11:12:39.317Z,1.90
2022-10-13T11:15:57.869Z,1.62
2022-10-13T11:19:14.599Z,1.82
2022-10-13T11:22:27.137Z,3.22
2022-10-13T11:25:54.559Z,1.98
2022-10-13T11:29:01.076Z,1.50
2022-10-13T11:32:09.345Z,1.92
2022-10-13T11:35:32.365Z,6.17
2022-10-13T11:38:44.236Z,2.55
2022-10-13T11:42:07.891Z,1.90
2022-10-13T11:45:40.130Z,2.17
2022-10-13T11:49:14.926Z,2.33
2022-10-13T11:52:38.573Z,2.98
2022-10-13T11:56:01.949Z,2.80
2022-10-13T11:59:08.109Z,2.47
2022-10-13T12:02:30.617Z,1.92
2022-10-13T12:05:39.567Z,2.15
2022-10-13T12:08:48.771Z,1.80
2022-10-13T12:11:55.672Z,1.95
2022-10-13T12:15:06.927Z,1.60
2022-10-13T12:18:12.440Z,1.77
2022-10-13T12:21:30.671Z,1.37
2022-10-13T12:24:40.599Z,1.00
2022-10-13T12:27:49.789Z,1.45
2022-10-13T12:30:56.859Z,1.05
2022-10-13T12:34:08.041Z,1.30
2022-10-13T12:37:30.473Z,1.22
2022-10-13T12:40:35.881Z,1.20
2022-10-13T12:43:43.753Z,1.15
2022-10-13T12:47:12.075Z,1.67
2022-10-13T12:50:42.415Z,1.65
2022-10-13T12:53:49.410Z,1.27
2022-10-13T12:56:57.858Z,1.12
2022-10-13T13:00:06.869Z,1.10
2022-10-13T13:03:16.917Z,1.20
2022-10-13T13:06:30.552Z,1.30
2022-10-13T13:09:38.433Z,1.82
2022-10-13T13:12:47.008Z,2.00
2022-10-13T13:15:54.554Z,1.85
2022-10-13T13:19:04.148Z,1.65
2022-10-13T13:22:12.289Z,1.80
2022-10-13T13:25:18.576Z,2.70
2022-10-13T13:28:28.482Z,2.90
2022-10-13T13:31:36.216Z,2.83
2022-10-13T13:34:43.926Z,2.35
2022-10-13T13:38:04.829Z,2.40
2022-10-13T13:41:12.104Z,2.95
2022-10-13T13:44:18.362Z,2.27
2022-10-13T13:47:32.993Z,2.05
2022-10-13T13:50:41.800Z,2.25
2022-10-13T13:53:47.857Z,2.10
2022-10-13T13:56:58.598Z,1.70
2022-10-13T14:00:06.905Z,2.20
2022-10-13T14:03:19.138Z,1.90
2022-10-13T14:06:23.982Z,2.42
2022-10-13T14:09:31.242Z,2.20
2022-10-13T14:12:38.545Z,1.80
2022-10-13T14:15:44.697Z,1.87
2022-10-13T14:18:49.800Z,1.90
2022-10-13T14:21:58.071Z,2.02
2022-10-13T14:25:04.429Z,1.95
2022-10-13T14:28:14.504Z,2.37
2022-10-13T14:31:20.853Z,2.50
2022-10-13T14:34:27.703Z,3.05
2022-10-13T14:37:35.562Z,3.37
2022-10-13T14:40:42.248Z,3.95
2022-10-13T14:43:50.282Z,4.17
2022-10-13T14:46:57.563Z,3.80
2022-10-13T14:50:02.723Z,3.75
2022-10-13T14:53:08.638Z,4.17
2022-10-13T14:56:14.155Z,3.95
2022-10-13T14:59:25.686Z,7.50
2022-10-13T15:02:33.380Z,9.65
2022-10-13T15:05:39.559Z,8.75
2022-10-13T15:08:44.776Z,9.75
2022-10-13T15:11:53.569Z,11.35
2022-10-13T15:15:01.882Z,14.33
2022-10-13T15:18:09.577Z,15.28
2022-10-13T15:21:15.296Z,17.90
2022-10-13T15:24:26.250Z,13.48
2022-10-13T15:27:36.887Z,14.35
2022-10-13T15:30:41.888Z,9.10
2022-10-13T15:33:48.767Z,13.60
2022-10-13T15:36:55.983Z,18.12
2022-10-13T15:40:03.886Z,21.12
2022-10-13T15:43:10.293Z,24.55
2022-10-13T15:46:18.209Z,20.92
2022-10-13T15:49:23.884Z,24.27
2022-10-13T15:52:34.772Z,45.75
2022-10-13T15:55:39.127Z,113.35
2022-10-13T15:58:44.732Z,109.42
2022-10-13T16:01:51.206Z,102.95
2022-10-13T16:04:58.049Z,57.78
2022-10-13T16:08:05.760Z,123.25
2022-10-13T16:11:11.905Z,107.07
2022-10-13T16:14:19.561Z,103.67
2022-10-13T16:17:26.109Z,112.03
2022-10-13T16:20:33.539Z,121.05
2022-10-13T16:23:38.418Z,116.25
2022-10-13T16:26:44.989Z,102.02
2022-10-13T16:29:50.011Z,84.75
2022-10-13T16:32:55.217Z,48.02
2022-10-13T16:36:00.837Z,75.08
2022-10-13T16:39:08.899Z,73.87
2022-10-13T16:42:15.148Z,74.05
2022-10-13T16:45:35.448Z,63.92
2022-10-13T16:48:28.716Z,56.50
2022-10-13T16:51:37.525Z,57.65
2022-10-13T16:54:45.095Z,67.40
2022-10-13T16:57:51.580Z,131.78
2022-10-13T17:00:57.013Z,101.85
2022-10-13T17:04:03.087Z,109.92
2022-10-13T17:07:10.360Z,138.30
2022-10-13T17:10:16.054Z,159.27
2022-10-13T17:13:23.503Z,168.93
2022-10-13T17:16:30.272Z,175.10
2022-10-13T17:19:38.602Z,148.32
2022-10-13T17:22:45.255Z,126.70
2022-10-13T17:25:51.703Z,120.87
2022-10-13T17:28:59.644Z,131.78
2022-10-13T17:32:08.535Z,104.40
2022-10-13T17:35:14.371Z,99.28
2022-10-13T17:38:20.871Z,89.22
2022-10-13T17:41:26.368Z,84.25
2022-10-13T17:44:32.708Z,78.95
2022-10-13T17:47:39.473Z,76.47
2022-10-13T17:50:47.213Z,73.12
2022-10-13T17:53:54.832Z,64.03
2022-10-13T17:57:02.145Z,63.05
2022-10-13T18:00:08.566Z,60.80
2022-10-13T18:03:16.867Z,64.75
2022-10-13T18:06:23.679Z,61.37
2022-10-13T18:09:35.992Z,62.48
2022-10-13T18:12:42.661Z,61.20
2022-10-13T18:15:54.022Z,54.25
2022-10-13T18:19:01.454Z,43.68
2022-10-13T18:22:09.314Z,44.33
2022-10-13T18:25:16.550Z,46.37
2022-10-13T18:28:23.395Z,49.38
2022-10-13T18:31:35.836Z,72.45
2022-10-13T18:34:41.193Z,75.97
2022-10-13T18:37:48.326Z,68.83
2022-10-13T18:40:55.001Z,71.97
2022-10-13T18:44:01.957Z,61.77
2022-10-13T18:47:08.480Z,59.75
2022-10-13T18:50:16.007Z,51.77
2022-10-13T18:53:22.769Z,51.88
2022-10-13T18:56:36.674Z,40.40
2022-10-13T18:59:45.490Z,42.13
2022-10-13T19:02:53.481Z,40.30
2022-10-13T19:06:00.449Z,45.03
2022-10-13T19:09:14.409Z,34.25
2022-10-13T19:12:20.232Z,29.20
2022-10-13T19:15:28.841Z,24.87
2022-10-13T19:18:37.067Z,22.07
2022-10-13T19:21:43.835Z,21.68
2022-10-13T19:24:49.262Z,19.87
2022-10-13T19:27:59.781Z,19.00
2022-10-13T19:31:06.353Z,18.17
2022-10-13T19:34:14.134Z,17.95
2022-10-13T19:37:24.354Z,17.57
2022-10-13T19:40:31.781Z,17.62
2022-10-13T19:43:37.767Z,16.23
2022-10-13T19:46:44.178Z,14.90
2022-10-13T19:49:54.880Z,16.40
2022-10-13T19:53:03.154Z,16.60
2022-10-13T19:56:09.806Z,20.80
2022-10-13T19:59:17.358Z,21.05
2022-10-13T20:02:27.659Z,24.35
2022-10-13T20:05:33.538Z,26.97
2022-10-13T20:08:39.733Z,18.70
2022-10-13T20:11:45.393Z,15.43
2022-10-13T20:14:50.909Z,15.68
2022-10-13T20:17:57.068Z,15.80
2022-10-13T20:21:04.574Z,16.15
2022-10-13T20:24:11.123Z,14.95
2022-10-13T20:27:16.205Z,15.28
2022-10-13T20:30:22.333Z,12.78
2022-10-13T20:33:28.800Z,14.13
2022-10-13T20:36:38.798Z,14.40
2022-10-13T20:39:42.709Z,14.07
2022-10-13T20:42:49.421Z,15.15
2022-10-13T20:45:57.219Z,14.50
2022-10-13T20:49:13.458Z,14.73
2022-10-13T20:52:14.226Z,15.65
2022-10-13T20:55:22.422Z,11.88
2022-10-13T20:58:27.870Z,12.13
2022-10-13T21:01:34.814Z,11.15
2022-10-13T21:04:43.786Z,11.53
2022-10-13T21:07:50.690Z,12.30
2022-10-13T21:10:56.598Z,12.82
2022-10-13T21:14:03.855Z,12.47
2022-10-13T21:17:11.473Z,12.47
2022-10-13T21:20:17.501Z,14.58
2022-10-13T21:23:24.277Z,15.13
2022-10-13T21:26:31.140Z,15.30
2022-10-13T21:29:39.271Z,16.80
2022-10-13T21:32:45.771Z,17.25
2022-10-13T21:35:52.200Z,20.15
2022-10-13T21:38:58.285Z,21.57
2022-10-13T21:42:04.084Z,21.97
2022-10-13T21:45:09.650Z,21.73
2022-10-13T21:48:16.777Z,21.25
2022-10-13T21:51:42.304Z,19.95
2022-10-13T21:54:48.161Z,18.30
2022-10-13T21:57:53.625Z,15.18
2022-10-13T22:01:01.558Z,12.90
2022-10-13T22:04:10.711Z,13.08
2022-10-13T22:07:18.950Z,13.55
2022-10-13T22:10:25.421Z,10.72
2022-10-13T22:13:31.347Z,9.80
2022-10-13T22:16:41.088Z,10.70
2022-10-13T22:19:47.901Z,10.88
2022-10-13T22:22:53.463Z,12.82
2022-10-13T22:26:00.610Z,14.70
2022-10-13T22:29:09.713Z,19.37
2022-10-13T22:32:17.017Z,21.10
2022-10-13T22:35:25.174Z,22.32
2022-10-13T22:38:30.536Z,23.92
2022-10-13T22:41:37.320Z,23.80
2022-10-13T22:44:43.286Z,25.20
2022-10-13T22:47:50.093Z,23.67
2022-10-13T22:50:57.157Z,25.25
2022-10-13T22:54:05.182Z,24.52
2022-10-13T22:57:11.974Z,23.10
2022-10-13T23:00:20.415Z,23.90
2022-10-13T23:03:30.956Z,23.20
2022-10-13T23:06:42.293Z,23.02
2022-10-13T23:09:47.475Z,19.45
2022-10-13T23:12:53.025Z,17.40
2022-10-13T23:15:59.041Z,18.70
2022-10-13T23:19:06.571Z,18.23
2022-10-13T23:22:13.564Z,17.35
2022-10-13T23:25:19.516Z,21.23
2022-10-13T23:28:24.715Z,36.65
2022-10-13T23:31:32.954Z,41.45
2022-10-13T23:34:39.856Z,38.83
2022-10-13T23:37:45.577Z,35.38
2022-10-13T23:40:51.334Z,26.62
2022-10-13T23:43:57.272Z,31.68
2022-10-13T23:47:03.510Z,24.18
2022-10-13T23:50:10.659Z,16.35
2022-10-13T23:53:17.046Z,15.72
2022-10-13T23:56:22.577Z,13.40
2022-10-13T23:59:29.153Z,11.57
